CheckWX is a tool to help pilots better visualize weather data.  It is not intended as a substitute for an official pre-flight weather briefing.

06:55:26 UTC

KBDR METAR
Igor I Sikorsky Memorial Airport
Bridgeport, Connecticut, USA
Current

1 hour ago

KBDR 210552Z AUTO 31003KT 10SM CLR 18/11 A2977 RMK AO2 SLP079 T01780106 10233 20178 50017
Observed
May-21 @ 05:52 UTC
Wind
  • 310° at 3 KTS
Visibility
10 SM
Flight Rules
VFR
Cloud Levels
  • Clear skies
Temperature
18°C / 64°F
Dewpoint
11°C / 52°F
Humidity
64%
Altimeter
29.77" Hg
Pressure
1008.12 hPa
Previous

2 hours ago

KBDR 210452Z AUTO 34011KT 10SM CLR 19/11 A2977 RMK AO2 SLP080 T01890111 402720161
Observed
May-21 @ 04:52 UTC
Wind
  • 340° at 11 KTS
Visibility
10 SM
Flight Rules
VFR
Cloud Levels
  • Clear skies
Temperature
19°C / 66°F
Dewpoint
11°C / 52°F
Humidity
60%
Altimeter
29.77" Hg
Pressure
1008.12 hPa
Previous

3 hours ago

KBDR 210352Z AUTO 36008KT 10SM CLR 20/14 A2976 RMK AO2 SLP078 T02000139
Observed
May-21 @ 03:52 UTC
Wind
  • 360° at 8 KTS
Visibility
10 SM
Flight Rules
VFR
Cloud Levels
  • Clear skies
Temperature
20°C / 68°F
Dewpoint
14°C / 57°F
Humidity
69%
Altimeter
29.76" Hg
Pressure
1007.82 hPa